Flight Track Log - Related Links

Times and Time Zones

All times are in EDT time to prevent confusion due to time zone crossing. See the CPT7773 flight status page for this flight to view local times or setup timezone preferences in your user account.

Time Position Orientation Groundspeed Altitude Reporting Facility
EDT Latitude Longitude Course Direction KTS MPH feet Rate Location/Type
Wed 08:09:34 PM 44.4844 -108.9147 120° Southeast 125 144 8,300  Level Salt Lake Center
Wed 08:10:36 PM 44.4631 -108.8761 128° Southeast 127 146 9,500 1,171 Climbing Salt Lake Center
Wed 08:11:37 PM 44.4386 -108.8319 128° Southeast 128 147 10,700 732 Climbing Salt Lake Center
Wed 08:12:39 PM 44.4161 -108.7903 127° Southeast 132 152 11,000 97 Climbing Salt Lake Center
Wed 08:13:41 PM 44.3853 -108.7356 128° Southeast 146 168 10,900  Descending Salt Lake Center
Wed 08:14:00 PM 44.3956 -108.7492 120° Southeast  Level FlightAware Approximate
Wed 08:14:42 PM 44.3586 -108.6850 126° Southeast 158 182 11,000  Level Salt Lake Center
Wed 08:15:44 PM 44.3289 -108.6283 126° Southeast 162 186 11,000  Level Salt Lake Center
Wed 08:16:46 PM 44.3039 -108.5800 126° Southeast 162 186 11,000  Level Salt Lake Center
Wed 08:17:47 PM 44.2775 -108.5333 128° Southeast 161 185 11,000  Level Salt Lake Center
Wed 08:18:49 PM 44.2475 -108.4761 126° Southeast 162 186 11,000  Level Salt Lake Center
Wed 08:19:51 PM 44.2214 -108.4281 127° Southeast 163 188 11,000  Level Salt Lake Center
Wed 08:20:52 PM 44.1903 -108.3703 127° Southeast 165 190 11,000  Level Salt Lake Center
Wed 08:21:54 PM 44.1631 -108.3211 128° Southeast 166 191 11,000  Level Salt Lake Center
Wed 08:23:40 PM 44.1144 -108.2297 127° Southeast 167 192 11,000  Level Denver Center
Wed 08:25:43 PM 44.0583 -108.1250 127° Southeast 163 188 11,000  Level Denver Center
Wed 08:26:01 PM 44.0489 -108.1108 133° Southeast 163 188 11,000  Level Salt Lake Center
Wed 08:27:02 PM 44.0219 -108.0625 128° Southeast 164 189 11,000  Level Salt Lake Center
Wed 08:28:04 PM 43.9897 -108.0053 128° Southeast 166 191 11,000  Level Salt Lake Center
Wed 08:29:06 PM 43.9639 -107.9553 126° Southeast 167 192 11,000  Level Salt Lake Center
Wed 08:30:07 PM 43.9336 -107.8986 127° Southeast 165 190 11,000  Level Salt Lake Center
Wed 08:31:09 PM 43.9094 -107.8486 124° Southeast 164 189 11,000  Level Salt Lake Center
Wed 08:32:11 PM 43.8789 -107.7892 125° Southeast 167 192 11,000  Level Salt Lake Center
Wed 08:33:13 PM 43.8533 -107.7400 126° Southeast 166 191 11,000  Level Salt Lake Center
Wed 08:34:14 PM 43.8281 -107.6911 126° Southeast 165 190 11,000  Level Salt Lake Center
Wed 08:35:16 PM 43.7983 -107.6339 126° Southeast 164 189 11,000  Level Salt Lake Center
Wed 08:36:18 PM 43.7733 -107.5858 126° Southeast 163 188 11,000  Level Salt Lake Center
Wed 08:37:20 PM 43.7444 -107.5278 125° Southeast 163 188 11,000  Level Salt Lake Center
Wed 08:38:21 PM 43.7192 -107.4792 126° Southeast 163 188 11,000  Level Salt Lake Center
Wed 08:39:23 PM 43.6900 -107.4242 126° Southeast 161 185 11,000  Level Salt Lake Center
Wed 08:40:25 PM 43.6661 -107.3747 124° Southeast 161 185 11,000  Level Salt Lake Center
Wed 08:41:27 PM 43.6417 -107.3264 125° Southeast 161 185 11,000  Level Salt Lake Center
Wed 08:42:28 PM 43.6122 -107.2731 127° Southeast 159 183 11,000  Level Salt Lake Center
Wed 08:43:30 PM 43.5875 -107.2258 126° Southeast 158 182 11,000  Level Salt Lake Center
Wed 08:44:32 PM 43.5589 -107.1689 125° Southeast 160 184 11,000  Level Salt Lake Center
Wed 08:45:34 PM 43.5342 -107.1231 127° Southeast 158 182 11,000  Level Salt Lake Center
Wed 08:46:35 PM 43.5067 -107.0692 125° Southeast 155 178 11,000  Level Salt Lake Center
Wed 08:46:57 PM 43.5042 -107.0594 110° East 155 178 11,000  Level Denver Center
Wed 08:47:59 PM 43.4739 -107.0064 128° Southeast 158 182 11,000  Level Denver Center
Wed 08:49:01 PM 43.4467 -106.9514 124° Southeast 156 180 11,000  Level Denver Center
Wed 08:50:02 PM 43.4219 -106.9042 126° Southeast 157 181 11,000  Level Denver Center
Wed 08:51:04 PM 43.3967 -106.8569 126° Southeast 157 181 11,000  Level Denver Center
Wed 08:52:06 PM 43.3656 -106.8067 130° Southeast 156 180 11,000 -390 Level Denver Center
Wed 08:53:07 PM 43.3256 -106.7794 154° Southeast 164 189 10,200 -488 Descending Denver Center
Wed 08:54:09 PM 43.2800 -106.7475 153° Southeast 164 189 10,000 -97 Descending Denver Center
Wed 08:55:11 PM 43.2453 -106.7192 149° Southeast 155 178 10,000 -390 Level Denver Center
Wed 08:56:12 PM 43.2042 -106.6850 149° Southeast 152 175 9,200 -732 Descending Denver Center
Wed 08:57:14 PM 43.1650 -106.6564 152° Southeast 158 182 8,500 -683 Descending Denver Center
Wed 08:58:15 PM 43.1253 -106.6283 153° Southeast 163 188 7,800 -488 Descending Denver Center
Wed 08:59:17 PM 43.0786 -106.5969 154° Southeast 166 191 7,500 -242 Descending Denver Center
Wed 09:00:19 PM 43.0414 -106.5731 155° Southeast 165 190 7,300 -194 Descending Denver Center
Wed 09:02:00 PM 42.9764 -106.5164 147° Southeast  Level FlightAware Approximate
Wed 09:09:00 PM 42.9080 -106.4644 151° Southeast  Level Estimated
Wed 09:10:00 PM 42.9080 -106.4644 151° Southeast  Level Estimated
Wed 09:11:00 PM 42.9080 -106.4644 151° Southeast  Level Estimated
Wed 09:12:00 PM 42.9080 -106.4644 151° Southeast  Level Estimated
Wed 09:13:00 PM 42.9080 -106.4644 151° Southeast  Level Estimated

Login

Don't have an account? Register now (free) for customized features, flight alerts, and more!